sensor_id;sensor_type;location;lat;lon;timestamp;P1;durP1;ratioP1;P2;durP2;ratioP2
58972;SDS011;44750;52.040;7.472;2024-03-02T05:01:30;2.05;;;1.85;;
58972;SDS011;44750;52.040;7.472;2024-03-02T05:06:31;2.72;;;2.28;;
58972;SDS011;44750;52.040;7.472;2024-03-02T05:11:31;2.63;;;2.37;;
58972;SDS011;44750;52.040;7.472;2024-03-02T05:16:34;2.92;;;2.17;;
58972;SDS011;44750;52.040;7.472;2024-03-02T05:21:35;3.90;;;1.90;;
58972;SDS011;44750;52.040;7.472;2024-03-02T05:26:36;2.10;;;1.90;;
58972;SDS011;44750;52.040;7.472;2024-03-02T05:31:36;3.55;;;1.98;;
58972;SDS011;44750;52.040;7.472;2024-03-02T05:36:36;4.72;;;2.38;;
58972;SDS011;44750;52.040;7.472;2024-03-02T05:41:36;2.75;;;1.75;;
58972;SDS011;44750;52.040;7.472;2024-03-02T05:46:37;2.45;;;1.92;;
58972;SDS011;44750;52.040;7.472;2024-03-02T05:51:37;3.33;;;2.13;;
58972;SDS011;44750;52.040;7.472;2024-03-02T05:56:37;2.17;;;1.88;;
58972;SDS011;44750;52.040;7.472;2024-03-02T06:01:46;1.77;;;1.53;;
58972;SDS011;44750;52.040;7.472;2024-03-02T06:06:47;1.88;;;1.73;;
58972;SDS011;44750;52.040;7.472;2024-03-02T06:11:48;3.55;;;1.67;;
58972;SDS011;44750;52.040;7.472;2024-03-02T06:16:48;1.95;;;1.60;;
58972;SDS011;44750;52.040;7.472;2024-03-02T06:21:48;4.67;;;1.70;;
58972;SDS011;44750;52.040;7.472;2024-03-02T06:26:48;2.05;;;1.83;;
58972;SDS011;44750;52.040;7.472;2024-03-02T06:31:49;1.83;;;1.60;;
58972;SDS011;44750;52.040;7.472;2024-03-02T06:36:49;2.20;;;1.90;;
58972;SDS011;44750;52.040;7.472;2024-03-02T06:41:49;3.28;;;1.83;;
58972;SDS011;44750;52.040;7.472;2024-03-02T06:46:49;3.97;;;2.40;;
58972;SDS011;44750;52.040;7.472;2024-03-02T06:51:50;2.43;;;2.13;;
58972;SDS011;44750;52.040;7.472;2024-03-02T06:56:50;5.22;;;2.25;;
58972;SDS011;44750;52.040;7.472;2024-03-02T07:01:51;2.72;;;1.90;;
58972;SDS011;44750;52.040;7.472;2024-03-02T07:06:51;2.75;;;1.92;;
58972;SDS011;44750;52.040;7.472;2024-03-02T07:11:52;2.92;;;2.15;;
58972;SDS011;44750;52.040;7.472;2024-03-02T07:16:52;5.63;;;2.33;;
58972;SDS011;44750;52.040;7.472;2024-03-02T07:21:52;3.05;;;1.73;;
58972;SDS011;44750;52.040;7.472;2024-03-02T15:17:50;1.70;;;0.73;;
58972;SDS011;44750;52.040;7.472;2024-03-02T15:22:50;0.70;;;0.70;;
58972;SDS011;44750;52.040;7.472;2024-03-02T15:27:51;2.33;;;0.67;;
58972;SDS011;44750;52.040;7.472;2024-03-02T15:32:51;1.07;;;0.70;;
58972;SDS011;44750;52.040;7.472;2024-03-02T15:37:51;0.70;;;0.70;;
58972;SDS011;44750;52.040;7.472;2024-03-02T15:42:51;0.65;;;0.63;;
58972;SDS011;44750;52.040;7.472;2024-03-02T15:47:52;0.68;;;0.60;;
58972;SDS011;44750;52.040;7.472;2024-03-02T15:52:52;0.68;;;0.55;;
58972;SDS011;44750;52.040;7.472;2024-03-02T15:57:52;0.65;;;0.60;;
58972;SDS011;44750;52.040;7.472;2024-03-02T16:02:52;0.88;;;0.68;;
58972;SDS011;44750;52.040;7.472;2024-03-02T16:07:53;0.98;;;0.70;;
58972;SDS011;44750;52.040;7.472;2024-03-02T16:12:53;1.95;;;0.73;;
58972;SDS011;44750;52.040;7.472;2024-03-02T16:17:53;0.85;;;0.60;;
58972;SDS011;44750;52.040;7.472;2024-03-02T16:22:53;1.00;;;0.57;;
58972;SDS011;44750;52.040;7.472;2024-03-02T16:27:54;0.73;;;0.73;;
58972;SDS011;44750;52.040;7.472;2024-03-02T16:32:54;1.08;;;0.70;;
58972;SDS011;44750;52.040;7.472;2024-03-02T16:37:54;2.63;;;0.93;;
58972;SDS011;44750;52.040;7.472;2024-03-02T16:42:54;0.80;;;0.70;;
58972;SDS011;44750;52.040;7.472;2024-03-02T16:47:55;13.45;;;0.75;;
58972;SDS011;44750;52.040;7.472;2024-03-02T16:52:55;2.83;;;0.75;;
58972;SDS011;44750;52.040;7.472;2024-03-02T16:57:55;2.78;;;0.75;;
58972;SDS011;44750;52.040;7.472;2024-03-02T17:02:55;0.98;;;0.80;;
58972;SDS011;44750;52.040;7.472;2024-03-02T17:07:56;1.02;;;0.80;;
58972;SDS011;44750;52.040;7.472;2024-03-02T17:12:56;0.60;;;0.60;;
58972;SDS011;44750;52.040;7.472;2024-03-02T17:17:56;2.20;;;0.90;;
58972;SDS011;44750;52.040;7.472;2024-03-02T17:22:56;0.70;;;0.70;;
58972;SDS011;44750;52.040;7.472;2024-03-02T17:28:17;2.05;;;1.00;;
58972;SDS011;44750;52.040;7.472;2024-03-02T17:33:23;1.25;;;1.15;;
58972;SDS011;44750;52.040;7.472;2024-03-02T17:38:23;1.10;;;1.00;;
58972;SDS011;44750;52.040;7.472;2024-03-02T17:43:24;2.15;;;1.25;;
58972;SDS011;44750;52.040;7.472;2024-03-02T17:48:24;1.20;;;1.02;;
58972;SDS011;44750;52.040;7.472;2024-03-02T17:53:25;1.88;;;1.20;;
58972;SDS011;44750;52.040;7.472;2024-03-02T17:58:25;1.95;;;1.15;;
58972;SDS011;44750;52.040;7.472;2024-03-02T18:03:25;1.92;;;1.70;;
58972;SDS011;44750;52.040;7.472;2024-03-02T18:08:25;1.77;;;1.40;;
58972;SDS011;44750;52.040;7.472;2024-03-02T18:13:26;2.30;;;1.80;;
58972;SDS011;44750;52.040;7.472;2024-03-02T18:18:26;2.20;;;1.83;;
58972;SDS011;44750;52.040;7.472;2024-03-02T18:23:26;1.83;;;1.67;;
58972;SDS011;44750;52.040;7.472;2024-03-02T18:28:27;1.85;;;1.63;;
58972;SDS011;44750;52.040;7.472;2024-03-02T18:33:27;7.00;;;2.20;;
58972;SDS011;44750;52.040;7.472;2024-03-02T18:38:27;2.30;;;1.95;;
58972;SDS011;44750;52.040;7.472;2024-03-02T18:43:27;3.05;;;1.83;;
58972;SDS011;44750;52.040;7.472;2024-03-02T18:48:27;2.33;;;1.52;;
58972;SDS011;44750;52.040;7.472;2024-03-02T18:53:28;2.17;;;1.80;;
58972;SDS011;44750;52.040;7.472;2024-03-02T18:58:28;1.45;;;1.35;;
58972;SDS011;44750;52.040;7.472;2024-03-02T19:03:28;1.35;;;1.10;;
58972;SDS011;44750;52.040;7.472;2024-03-02T19:08:29;1.67;;;1.52;;
58972;SDS011;44750;52.040;7.472;2024-03-02T19:13:29;1.85;;;1.38;;
58972;SDS011;44750;52.040;7.472;2024-03-02T19:18:29;1.55;;;1.40;;
58972;SDS011;44750;52.040;7.472;2024-03-02T19:23:30;2.63;;;1.77;;
58972;SDS011;44750;52.040;7.472;2024-03-02T19:28:30;1.83;;;1.38;;
58972;SDS011;44750;52.040;7.472;2024-03-02T19:33:30;2.97;;;1.80;;
58972;SDS011;44750;52.040;7.472;2024-03-02T19:38:30;1.70;;;1.60;;
58972;SDS011;44750;52.040;7.472;2024-03-02T19:43:30;2.80;;;1.83;;
58972;SDS011;44750;52.040;7.472;2024-03-02T19:48:31;1.85;;;1.63;;
58972;SDS011;44750;52.040;7.472;2024-03-02T19:53:31;2.25;;;1.85;;
58972;SDS011;44750;52.040;7.472;2024-03-02T19:58:31;2.58;;;2.03;;
58972;SDS011;44750;52.040;7.472;2024-03-02T20:03:31;2.80;;;2.10;;
58972;SDS011;44750;52.040;7.472;2024-03-02T20:08:32;3.05;;;2.15;;
58972;SDS011;44750;52.040;7.472;2024-03-02T20:13:33;2.60;;;2.20;;
58972;SDS011;44750;52.040;7.472;2024-03-02T20:18:34;2.33;;;2.13;;
58972;SDS011;44750;52.040;7.472;2024-03-02T20:23:34;2.28;;;2.08;;
58972;SDS011;44750;52.040;7.472;2024-03-02T20:28:34;4.40;;;3.15;;
58972;SDS011;44750;52.040;7.472;2024-03-02T20:33:34;6.95;;;3.15;;
58972;SDS011;44750;52.040;7.472;2024-03-02T20:38:35;4.07;;;2.88;;
58972;SDS011;44750;52.040;7.472;2024-03-02T20:43:35;3.67;;;2.75;;
58972;SDS011;44750;52.040;7.472;2024-03-02T20:48:35;6.20;;;3.10;;
58972;SDS011;44750;52.040;7.472;2024-03-02T20:53:35;3.50;;;3.00;;
58972;SDS011;44750;52.040;7.472;2024-03-02T20:58:36;3.28;;;2.97;;
58972;SDS011;44750;52.040;7.472;2024-03-02T21:03:36;4.88;;;4.05;;
58972;SDS011;44750;52.040;7.472;2024-03-02T21:08:36;5.00;;;3.75;;
58972;SDS011;44750;52.040;7.472;2024-03-02T21:13:36;4.70;;;3.70;;
58972;SDS011;44750;52.040;7.472;2024-03-02T21:18:37;4.82;;;3.90;;
58972;SDS011;44750;52.040;7.472;2024-03-02T21:23:37;4.43;;;3.40;;
58972;SDS011;44750;52.040;7.472;2024-03-02T21:28:38;3.55;;;2.97;;
58972;SDS011;44750;52.040;7.472;2024-03-02T21:33:38;4.30;;;3.60;;
58972;SDS011;44750;52.040;7.472;2024-03-02T21:38:38;6.18;;;3.53;;
58972;SDS011;44750;52.040;7.472;2024-03-02T21:43:39;4.45;;;3.55;;
58972;SDS011;44750;52.040;7.472;2024-03-02T21:48:39;5.07;;;3.38;;
58972;SDS011;44750;52.040;7.472;2024-03-02T21:53:39;5.50;;;3.65;;
